Terminal Aerodrome Forecast
Issued by NWS

Home | Current Version | Previous Version | Text Only | Print | Product List | Glossary On
Versions: 1 2 3 4 5 6 7 8 9 10 11 12 13 14 15 16 17 18 19 20 21 22 23 24 25 26 27 28 29
000
FTUS43 KMKX 290252 AAB
TAFUES
TAF AMD
KUES 290252Z 2903/2924 17006KT P6SM RA VCTS SCT060CB OVC110
     FM290400 20005KT P6SM BKN050
     FM291300 22007KT P6SM VCSH BKN020
     FM291700 25011G20KT P6SM BKN025
     FM291900 25011G21KT P6SM BKN035=

USA.gov is the U.S. government's official web portal to all federal, state and local government web resources and services.